createdAt,value
2018-03-14T00:00:43.439Z,100520.23
2018-03-14T00:03:12.073Z,100525.35
2018-03-14T00:05:40.561Z,100523.39
2018-03-14T00:08:09.581Z,100524.45
2018-03-14T00:10:38.483Z,100523.86
2018-03-14T00:13:06.958Z,100528.80
2018-03-14T00:15:36.664Z,100527.41
2018-03-14T00:18:06.848Z,100531.19
2018-03-14T00:20:35.568Z,100545.16
2018-03-14T00:23:04.121Z,100539.21
2018-03-14T00:25:32.628Z,100543.69
2018-03-14T00:28:01.088Z,100546.94
2018-03-14T00:30:29.771Z,100546.94
2018-03-14T00:32:58.552Z,100551.70
2018-03-14T00:35:27.041Z,100556.41
2018-03-14T00:37:55.649Z,100563.41
2018-03-14T00:40:24.134Z,100555.00
2018-03-14T00:42:52.579Z,100557.34
2018-03-14T00:45:22.612Z,100556.43
2018-03-14T00:47:51.155Z,100560.08
2018-03-14T00:50:19.725Z,100556.19
2018-03-14T00:52:50.593Z,100556.90
2018-03-14T00:55:19.088Z,100561.74
2018-03-14T00:57:47.682Z,100556.59
2018-03-14T01:00:16.225Z,100562.80
2018-03-14T01:02:44.776Z,100560.46
2018-03-14T01:05:13.321Z,100560.77
2018-03-14T01:07:42.732Z,100562.17
2018-03-14T01:10:11.234Z,100564.47
2018-03-14T01:12:39.670Z,100568.27
2018-03-14T01:15:08.950Z,100566.83
2018-03-14T01:17:37.398Z,100570.89
2018-03-14T01:20:05.842Z,100574.38
2018-03-14T01:22:34.329Z,100575.41
2018-03-14T01:25:02.892Z,100582.72
2018-03-14T01:27:31.316Z,100587.22
2018-03-14T01:30:00.256Z,100591.45
2018-03-14T01:32:30.718Z,100594.59
2018-03-14T01:34:59.373Z,100594.58
2018-03-14T01:37:27.858Z,100594.16
2018-03-14T01:39:56.363Z,100595.75
2018-03-14T01:42:24.843Z,100596.98
2018-03-14T01:44:54.170Z,100595.39
2018-03-14T01:47:23.570Z,100600.96
2018-03-14T01:49:52.155Z,100599.48
2018-03-14T01:52:21.262Z,100602.05
2018-03-14T01:54:51.076Z,100600.34
2018-03-14T01:57:19.726Z,100603.48
2018-03-14T01:59:48.509Z,100609.86
2018-03-14T02:02:17.886Z,100613.48
2018-03-14T02:04:46.394Z,100614.88
2018-03-14T02:07:15.301Z,100612.52
2018-03-14T02:09:43.858Z,100613.05
2018-03-14T02:12:13.392Z,100612.36
2018-03-14T02:14:42.741Z,100616.39
2018-03-14T02:17:11.895Z,100617.72
2018-03-14T02:19:40.396Z,100621.95
2018-03-14T02:22:09.117Z,100620.59
2018-03-14T02:24:37.552Z,100625.52
2018-03-14T02:27:13.439Z,100629.80
2018-03-14T02:29:42.124Z,100628.34
2018-03-14T02:32:10.674Z,100633.84
2018-03-14T02:34:39.152Z,100636.48
2018-03-14T02:37:07.597Z,100644.89
2018-03-14T02:39:36.041Z,100645.78
2018-03-14T02:42:04.621Z,100650.35
2018-03-14T02:44:33.518Z,100652.31
2018-03-14T02:47:02.047Z,100659.12
2018-03-14T02:49:31.028Z,100667.17
2018-03-14T02:51:59.473Z,100667.48
2018-03-14T02:54:27.996Z,100668.59
2018-03-14T02:56:57.325Z,100675.05
2018-03-14T02:59:25.726Z,100680.75
2018-03-14T03:01:54.153Z,100686.88
2018-03-14T03:04:23.491Z,100684.44
2018-03-14T03:06:52.172Z,100684.87
2018-03-14T03:09:20.673Z,100687.57
2018-03-14T03:11:49.775Z,100685.91
2018-03-14T03:14:18.402Z,100696.04
2018-03-14T03:16:46.911Z,100690.44
2018-03-14T03:19:16.239Z,100691.61
2018-03-14T03:21:44.834Z,100699.41
2018-03-14T03:24:13.560Z,100699.76
2018-03-14T03:26:44.039Z,100701.80
2018-03-14T03:29:13.551Z,100713.28
2018-03-14T03:31:42.078Z,100711.17
2018-03-14T03:34:12.051Z,100715.23
2018-03-14T03:36:40.477Z,100726.83
2018-03-14T03:39:09.012Z,100717.98
2018-03-14T03:41:37.657Z,100722.80
2018-03-14T03:44:06.304Z,100730.47
2018-03-14T03:46:34.743Z,100734.57
2018-03-14T03:49:03.598Z,100741.03
2018-03-14T03:51:32.021Z,100741.11
2018-03-14T03:54:00.458Z,100744.61
2018-03-14T03:56:28.959Z,100752.92
2018-03-14T03:59:09.938Z,100750.84
2018-03-14T04:01:39.316Z,100755.49
2018-03-14T04:04:07.801Z,100749.73
2018-03-14T04:06:36.786Z,100760.88
2018-03-14T04:09:05.732Z,100761.97
2018-03-14T04:11:34.193Z,100769.11
2018-03-14T04:14:03.179Z,100769.73
2018-03-14T04:16:32.142Z,100780.39
2018-03-14T04:19:00.569Z,100789.06
2018-03-14T04:21:29.155Z,100783.63
2018-03-14T04:23:57.640Z,100789.17
2018-03-14T04:26:26.119Z,100788.84
2018-03-14T04:28:54.909Z,100789.34
2018-03-14T04:31:23.672Z,100793.42
2018-03-14T04:33:52.111Z,100795.27
2018-03-14T04:36:20.602Z,100796.67
2018-03-14T04:38:50.357Z,100799.22
2018-03-14T04:41:18.979Z,100799.39
2018-03-14T04:43:47.579Z,100807.05
2018-03-14T04:46:16.846Z,100809.99
2018-03-14T04:48:46.328Z,100813.05
2018-03-14T04:51:14.797Z,100810.98
2018-03-14T04:53:43.969Z,100811.27
2018-03-14T04:56:13.922Z,100808.81
2018-03-14T04:58:42.614Z,100817.47
2018-03-14T05:01:13.225Z,100815.47
2018-03-14T05:03:42.128Z,100814.07
2018-03-14T05:06:10.602Z,100815.38
2018-03-14T05:08:39.151Z,100817.62
2018-03-14T05:11:07.629Z,100819.94
2018-03-14T05:13:36.143Z,100824.16
2018-03-14T05:16:05.040Z,100823.02
2018-03-14T05:18:33.822Z,100824.70
2018-03-14T05:21:02.275Z,100829.47
2018-03-14T05:23:30.806Z,100829.11
2018-03-14T05:25:59.237Z,100828.22
2018-03-14T05:28:27.745Z,100834.91
2018-03-14T05:30:56.325Z,100840.92
2018-03-14T05:33:25.026Z,100839.83
2018-03-14T05:35:53.590Z,100836.92
2018-03-14T05:38:22.422Z,100845.08
2018-03-14T05:40:50.986Z,100852.41
2018-03-14T05:43:19.576Z,100852.55
2018-03-14T05:45:48.902Z,100853.85
2018-03-14T05:48:17.404Z,100852.66
2018-03-14T05:50:45.931Z,100859.81
2018-03-14T05:53:14.571Z,100859.88
2018-03-14T05:55:44.821Z,100867.24
2018-03-14T05:58:14.162Z,100873.91
2018-03-14T06:00:43.727Z,100875.45
2018-03-14T06:03:12.835Z,100876.24
2018-03-14T06:05:41.279Z,100872.19
2018-03-14T06:08:09.770Z,100877.94
2018-03-14T06:10:38.210Z,100880.06
2018-03-14T06:13:06.644Z,100884.29
2018-03-14T06:15:35.213Z,100888.50
2018-03-14T06:18:03.790Z,100886.98
2018-03-14T06:20:32.270Z,100888.64
2018-03-14T06:23:01.951Z,100886.95
2018-03-14T06:25:30.439Z,100888.56
2018-03-14T06:27:58.994Z,100896.42
2018-03-14T06:30:27.720Z,100889.10
2018-03-14T06:32:56.176Z,100897.16
2018-03-14T06:35:25.178Z,100900.92
2018-03-14T06:37:53.915Z,100903.86
2018-03-14T06:40:22.939Z,100904.91
2018-03-14T06:42:51.491Z,100902.94
2018-03-14T06:45:22.159Z,100910.98
2018-03-14T06:47:50.695Z,100911.94
2018-03-14T06:50:19.189Z,100914.50
2018-03-14T06:52:48.018Z,100913.93
2018-03-14T06:55:17.064Z,100911.78
2018-03-14T06:57:45.737Z,100924.19
2018-03-14T07:00:25.936Z,100920.00
2018-03-14T07:03:06.190Z,100929.28
2018-03-14T07:05:47.388Z,100928.09
2018-03-14T07:08:15.924Z,100940.84
2018-03-14T07:10:44.712Z,100943.39
2018-03-14T07:13:13.632Z,100947.38
2018-03-14T07:15:43.172Z,100942.32
2018-03-14T07:18:11.691Z,100954.07
2018-03-14T07:20:41.539Z,100946.27
2018-03-14T07:23:10.089Z,100949.40
2018-03-14T07:25:38.586Z,100951.79
2018-03-14T07:28:07.109Z,100956.49
2018-03-14T07:30:35.546Z,100959.16
2018-03-14T07:33:09.651Z,100956.71
2018-03-14T07:35:38.140Z,100958.79
2018-03-14T07:38:06.589Z,100965.56
2018-03-14T07:40:35.160Z,100968.52
2018-03-14T07:43:03.637Z,100972.45
2018-03-14T07:45:32.062Z,100982.29
2018-03-14T07:48:00.568Z,100970.55
2018-03-14T07:50:29.002Z,100980.56
2018-03-14T07:52:57.441Z,100970.69
2018-03-14T07:55:25.979Z,100981.81
2018-03-14T07:57:54.465Z,100982.70
2018-03-14T08:00:22.910Z,100980.91
2018-03-14T08:02:51.535Z,100979.37
2018-03-14T08:05:20.121Z,100977.70
2018-03-14T08:07:48.633Z,100980.14
2018-03-14T08:10:18.309Z,100989.52
2018-03-14T08:12:46.962Z,100988.39
2018-03-14T08:15:15.980Z,100980.04
2018-03-14T08:17:45.589Z,100981.47
2018-03-14T08:20:14.163Z,100983.24
2018-03-14T08:22:42.767Z,100991.30
2018-03-14T08:25:12.480Z,100996.64
2018-03-14T08:27:41.010Z,100998.41
2018-03-14T08:30:09.443Z,100992.66
2018-03-14T08:32:38.308Z,100987.90
2018-03-14T08:35:06.740Z,100992.81
2018-03-14T08:37:35.334Z,100998.83
2018-03-14T08:40:04.051Z,101007.30
2018-03-14T08:42:32.470Z,101002.81
2018-03-14T08:45:01.018Z,101005.71
2018-03-14T08:47:30.077Z,100998.70
2018-03-14T08:49:58.564Z,101004.85
2018-03-14T08:52:27.080Z,101014.39
2018-03-14T08:54:55.756Z,101009.66
2018-03-14T08:57:24.247Z,101016.23
2018-03-14T08:59:52.751Z,101020.02
2018-03-14T09:02:21.329Z,101017.09
2018-03-14T09:04:49.804Z,101021.97
2018-03-14T09:07:18.421Z,101024.86
2018-03-14T09:09:48.439Z,101025.10
2018-03-14T09:12:16.967Z,101034.47
2018-03-14T09:14:45.405Z,101030.88
2018-03-14T09:17:14.259Z,101028.91
2018-03-14T09:19:42.773Z,101039.06
2018-03-14T09:22:11.295Z,101037.94
2018-03-14T09:24:39.806Z,101043.05
2018-03-14T09:27:08.246Z,101043.98
2018-03-14T09:29:36.690Z,101051.36
2018-03-14T09:32:09.266Z,101053.02
2018-03-14T09:34:37.709Z,101054.98
2018-03-14T09:37:06.135Z,101053.92
2018-03-14T09:39:34.864Z,101054.91
2018-03-14T09:42:03.508Z,101056.98
2018-03-14T09:44:32.953Z,101060.00
2018-03-14T09:47:01.862Z,101059.23
2018-03-14T09:49:30.358Z,101059.41
2018-03-14T09:51:58.858Z,101063.13
2018-03-14T09:54:27.366Z,101065.09
2018-03-14T09:56:55.803Z,101070.41
2018-03-14T09:59:24.253Z,101068.41
2018-03-14T10:01:52.764Z,101079.09
2018-03-14T10:04:21.298Z,101077.17
2018-03-14T10:06:49.957Z,101068.96
2018-03-14T10:09:18.631Z,101075.30
2018-03-14T10:11:47.127Z,101074.35
2018-03-14T10:14:15.768Z,101075.84
2018-03-14T10:16:44.351Z,101081.64
2018-03-14T10:19:13.510Z,101083.58
2018-03-14T10:21:42.049Z,101084.41
2018-03-14T10:24:10.653Z,101087.99
2018-03-14T10:26:39.119Z,101081.57
2018-03-14T10:29:07.562Z,101086.80
2018-03-14T10:31:36.242Z,101079.86
2018-03-14T10:34:04.725Z,101089.83
2018-03-14T10:36:33.168Z,101087.81
2018-03-14T10:39:01.921Z,101089.69
2018-03-14T10:41:30.391Z,101098.91
2018-03-14T10:43:58.881Z,101094.81
2018-03-14T10:46:27.360Z,101093.67
2018-03-14T10:48:55.798Z,101096.30
2018-03-14T10:51:24.301Z,101103.89
2018-03-14T10:53:52.860Z,101098.73
2018-03-14T10:56:21.339Z,101099.71
2018-03-14T10:58:49.867Z,101101.05
2018-03-14T11:01:19.030Z,101104.04
2018-03-14T11:03:47.872Z,101102.50
2018-03-14T11:06:16.382Z,101101.65
2018-03-14T11:08:45.551Z,101103.14
2018-03-14T11:11:14.129Z,101102.84
2018-03-14T11:13:43.843Z,101101.80
2018-03-14T11:16:13.164Z,101098.84
2018-03-14T11:18:42.750Z,101090.33
2018-03-14T11:21:11.555Z,101099.28
2018-03-14T11:23:40.117Z,101096.52
2018-03-14T11:26:09.006Z,101091.17
2018-03-14T11:28:37.465Z,101095.19
2018-03-14T11:31:06.025Z,101091.66
2018-03-14T11:33:34.489Z,101092.16
2018-03-14T11:36:02.939Z,101099.44
2018-03-14T11:38:33.001Z,101085.23
2018-03-14T11:41:01.619Z,101082.51
2018-03-14T11:43:30.099Z,101082.16
2018-03-14T11:45:59.910Z,101076.23
2018-03-14T11:48:28.461Z,101084.91
2018-03-14T11:50:56.967Z,101086.09
2018-03-14T11:53:26.404Z,101080.74
2018-03-14T11:55:55.086Z,101083.13
2018-03-14T11:58:24.208Z,101083.21
2018-03-14T12:00:54.335Z,101081.45
2018-03-14T12:03:22.987Z,101085.66
2018-03-14T12:05:51.691Z,101082.53
2018-03-14T12:08:21.159Z,101089.84
2018-03-14T12:10:49.741Z,101091.16
2018-03-14T12:13:18.531Z,101096.92
2018-03-14T12:15:47.149Z,101086.77
2018-03-14T12:18:16.307Z,101099.67
2018-03-14T12:20:45.408Z,101100.16
2018-03-14T12:23:14.198Z,101088.95
2018-03-14T12:25:44.051Z,101098.02
2018-03-14T12:28:14.811Z,101093.17
2018-03-14T12:30:43.651Z,101096.63
2018-03-14T12:33:12.435Z,101099.33
2018-03-14T12:35:41.254Z,101088.29
2018-03-14T12:38:11.137Z,101088.28
2018-03-14T12:40:39.701Z,101088.28
2018-03-14T12:43:08.692Z,101092.30
2018-03-14T12:45:37.114Z,101093.08
2018-03-14T12:48:05.666Z,101087.36
2018-03-14T12:50:35.894Z,101092.64
2018-03-14T12:53:05.291Z,101091.99
2018-03-14T12:55:33.977Z,101092.85
2018-03-14T12:58:02.485Z,101090.45
2018-03-14T13:00:30.942Z,101089.03
2018-03-14T13:02:59.420Z,101088.67
2018-03-14T13:05:28.953Z,101084.15
2018-03-14T13:07:57.433Z,101087.87
2018-03-14T13:10:25.994Z,101091.63
2018-03-14T13:12:55.394Z,101085.55
2018-03-14T13:15:24.185Z,101089.77
2018-03-14T13:17:53.232Z,101086.88
2018-03-14T13:20:21.973Z,101092.42
2018-03-14T13:22:50.758Z,101092.45
2018-03-14T13:25:19.439Z,101094.87
2018-03-14T13:27:48.945Z,101096.82
2018-03-14T13:30:17.632Z,101100.64
2018-03-14T13:32:46.222Z,101100.30
2018-03-14T13:35:17.055Z,101086.56
2018-03-14T13:37:46.357Z,101092.98
2018-03-14T13:40:15.562Z,101088.27
2018-03-14T13:42:45.680Z,101090.94
2018-03-14T13:45:14.885Z,101100.41
2018-03-14T13:47:43.864Z,101099.17
2018-03-14T13:50:13.630Z,101103.19
2018-03-14T13:52:42.180Z,101108.44
2018-03-14T13:55:10.968Z,101109.20
2018-03-14T13:57:39.625Z,101100.31
2018-03-14T14:00:08.142Z,101111.73
2018-03-14T14:02:36.676Z,101111.50
2018-03-14T14:05:05.713Z,101108.08
2018-03-14T14:07:34.277Z,101103.53
2018-03-14T14:10:02.947Z,101112.84
2018-03-14T14:12:31.701Z,101103.97
2018-03-14T14:15:00.150Z,101098.14
2018-03-14T14:17:28.612Z,101102.68
2018-03-14T14:19:57.867Z,101107.00
2018-03-14T14:22:26.442Z,101106.27
2018-03-14T14:24:55.179Z,101105.94
2018-03-14T14:27:25.994Z,101112.66
2018-03-14T14:29:57.461Z,101112.59
2018-03-14T14:32:26.537Z,101116.55
2018-03-14T14:34:55.231Z,101113.01
2018-03-14T14:37:23.889Z,101111.73
2018-03-14T14:39:56.385Z,101115.41
2018-03-14T14:42:27.484Z,101110.55
2018-03-14T14:44:57.007Z,101104.22
2018-03-14T14:47:27.449Z,101113.14
2018-03-14T14:49:58.049Z,101108.30
2018-03-14T14:52:27.515Z,101104.58
2018-03-14T14:54:56.993Z,101106.12
2018-03-14T14:57:26.625Z,101103.41
2018-03-14T14:59:55.478Z,101101.08
2018-03-14T15:02:24.605Z,101105.23
2018-03-14T15:04:53.504Z,101103.26
2018-03-14T15:07:23.490Z,101108.70
2018-03-14T15:09:54.479Z,101102.30
2018-03-14T15:12:23.555Z,101102.65
2018-03-14T15:14:52.258Z,101100.32
2018-03-14T15:17:21.123Z,101098.40
2018-03-14T15:19:50.130Z,101100.86
2018-03-14T15:22:18.802Z,101091.05
2018-03-14T15:24:47.497Z,101098.60
2018-03-14T15:27:17.321Z,101094.48
2018-03-14T15:29:49.635Z,101090.47
2018-03-14T15:32:18.534Z,101092.34
2018-03-14T15:34:48.289Z,101081.68
2018-03-14T15:37:16.914Z,101075.16
2018-03-14T15:39:46.158Z,101074.23
2018-03-14T15:42:14.696Z,101071.13
2018-03-14T15:44:44.272Z,101076.52
2018-03-14T15:47:13.653Z,101079.11
2018-03-14T15:49:42.134Z,101083.36
2018-03-14T15:52:10.651Z,101089.70
2018-03-14T15:54:39.607Z,101094.20
2018-03-14T15:57:08.152Z,101094.36
2018-03-14T15:59:36.635Z,101080.70
2018-03-14T16:02:06.071Z,101078.83
2018-03-14T16:04:35.421Z,101075.00
2018-03-14T16:07:03.959Z,101073.25
2018-03-14T16:09:33.201Z,101073.91
2018-03-14T16:12:01.730Z,101087.30
2018-03-14T16:14:30.218Z,101080.48
2018-03-14T16:16:58.770Z,101080.39
2018-03-14T16:19:27.278Z,101080.45
2018-03-14T16:21:57.652Z,101087.99
2018-03-14T16:24:26.191Z,101087.96
2018-03-14T16:26:54.725Z,101084.66
2018-03-14T16:29:23.495Z,101078.96
2018-03-14T16:31:52.374Z,101082.84
2018-03-14T16:34:21.517Z,101088.72
2018-03-14T16:36:50.582Z,101086.14
2018-03-14T16:39:21.849Z,101081.31
2018-03-14T16:41:50.637Z,101081.98
2018-03-14T16:44:19.536Z,101085.31
2018-03-14T16:46:49.039Z,101079.37
2018-03-14T16:49:17.584Z,101080.06
2018-03-14T16:51:46.784Z,101078.14
2018-03-14T16:54:16.032Z,101081.19
2018-03-14T16:56:45.283Z,101082.14
2018-03-14T16:59:14.109Z,101086.47
2018-03-14T17:01:42.868Z,101084.19
2018-03-14T17:04:11.413Z,101086.03
2018-03-14T17:06:39.932Z,101084.16
2018-03-14T17:09:08.516Z,101093.08
2018-03-14T17:11:37.045Z,101086.08
2018-03-14T17:14:05.662Z,101085.64
2018-03-14T17:16:34.252Z,101087.27
2018-03-14T17:19:02.876Z,101097.81
2018-03-14T17:21:31.389Z,101086.14
2018-03-14T17:23:59.893Z,101096.09
2018-03-14T17:26:28.374Z,101085.28
2018-03-14T17:28:56.884Z,101089.55
2018-03-14T17:31:27.088Z,101083.53
2018-03-14T17:33:55.918Z,101083.72
2018-03-14T17:36:24.523Z,101085.14
2018-03-14T17:38:54.807Z,101080.02
2018-03-14T17:41:23.512Z,101083.69
2018-03-14T17:43:52.237Z,101074.93
2018-03-14T17:46:21.340Z,101077.31
2018-03-14T17:48:50.222Z,101071.80
2018-03-14T17:51:18.925Z,101075.93
2018-03-14T17:53:48.459Z,101071.53
2018-03-14T17:56:17.246Z,101060.27
2018-03-14T17:58:46.087Z,101065.84
2018-03-14T18:01:15.742Z,101060.16
2018-03-14T18:03:44.714Z,101062.44
2018-03-14T18:06:13.587Z,101067.80
2018-03-14T18:08:42.820Z,101059.98
2018-03-14T18:11:11.368Z,101057.08
2018-03-14T18:13:41.218Z,101044.06
2018-03-14T18:16:14.915Z,101048.92
2018-03-14T18:18:43.565Z,101046.81
2018-03-14T18:21:12.194Z,101048.98
2018-03-14T18:23:40.885Z,101051.56
2018-03-14T18:26:09.342Z,101054.73
2018-03-14T18:28:37.901Z,101049.94
2018-03-14T18:31:06.404Z,101050.19
2018-03-14T18:33:34.959Z,101052.61
2018-03-14T18:36:03.582Z,101050.40
2018-03-14T18:38:32.845Z,101056.64
2018-03-14T18:41:01.350Z,101054.70
2018-03-14T18:43:30.012Z,101057.28
2018-03-14T18:45:58.493Z,101047.33
2018-03-14T18:48:26.971Z,101052.33
2018-03-14T18:50:55.500Z,101049.32
2018-03-14T18:53:24.595Z,101049.03
2018-03-14T18:55:53.129Z,101049.34
2018-03-14T18:58:21.713Z,101046.80
2018-03-14T19:00:50.713Z,101053.80
2018-03-14T19:03:19.396Z,101044.06
2018-03-14T19:05:50.140Z,101037.52
2018-03-14T19:08:18.923Z,101046.55
2018-03-14T19:10:47.508Z,101046.08
2018-03-14T19:13:16.436Z,101058.14
2018-03-14T19:15:46.622Z,101046.38
2018-03-14T19:18:15.197Z,101043.36
2018-03-14T19:20:43.817Z,101050.39
2018-03-14T19:23:13.196Z,101049.50
2018-03-14T19:25:42.390Z,101053.59
2018-03-14T19:28:11.072Z,101065.86
2018-03-14T19:30:40.230Z,101056.97
2018-03-14T19:33:08.710Z,101060.02
2018-03-14T19:35:37.191Z,101060.61
2018-03-14T19:38:05.846Z,101054.72
2018-03-14T19:40:34.932Z,101051.33
2018-03-14T19:43:03.452Z,101049.20
2018-03-14T19:45:32.785Z,101045.38
2018-03-14T19:48:01.235Z,101045.42
2018-03-14T19:50:29.676Z,101044.27
2018-03-14T19:52:58.500Z,101050.96
2018-03-14T19:55:27.062Z,101051.56
2018-03-14T19:57:55.649Z,101061.80
2018-03-14T20:00:24.185Z,101061.61
2018-03-14T20:02:52.768Z,101057.50
2018-03-14T20:05:21.418Z,101060.95
2018-03-14T20:07:50.809Z,101051.82
2018-03-14T20:10:19.407Z,101048.66
2018-03-14T20:12:48.093Z,101048.26
2018-03-14T20:15:17.162Z,101045.22
2018-03-14T20:17:46.571Z,101050.96
2018-03-14T20:20:15.789Z,101051.06
2018-03-14T20:22:44.646Z,101050.94
2018-03-14T20:25:14.415Z,101059.79
2018-03-14T20:27:43.083Z,101060.75
2018-03-14T20:30:12.984Z,101060.03
2018-03-14T20:32:42.942Z,101064.94
2018-03-14T20:35:11.673Z,101060.67
2018-03-14T20:37:40.378Z,101057.80
2018-03-14T20:40:09.744Z,101052.91
2018-03-14T20:42:46.631Z,101051.58
2018-03-14T20:45:18.100Z,101054.37
2018-03-14T20:47:49.834Z,101048.75
2018-03-14T20:50:19.987Z,101050.02
2018-03-14T20:52:48.618Z,101045.77
2018-03-14T20:55:18.112Z,101040.15
2018-03-14T20:57:46.593Z,101037.81
2018-03-14T21:00:15.386Z,101042.45
2018-03-14T21:02:44.835Z,101040.00
2018-03-14T21:05:13.549Z,101037.48
2018-03-14T21:07:42.469Z,101037.81
2018-03-14T21:10:11.070Z,101040.80
2018-03-14T21:12:39.726Z,101040.46
2018-03-14T21:15:08.423Z,101034.63
2018-03-14T21:17:37.340Z,101028.02
2018-03-14T21:20:05.846Z,101033.73
2018-03-14T21:22:34.364Z,101048.57
2018-03-14T21:25:02.988Z,101045.41
2018-03-14T21:27:31.461Z,101039.11
2018-03-14T21:30:00.237Z,101043.81
2018-03-14T21:32:28.752Z,101054.34
2018-03-14T21:34:57.264Z,101054.73
2018-03-14T21:37:25.980Z,101055.45
2018-03-14T21:39:54.970Z,101062.14
2018-03-14T21:42:23.525Z,101060.20
2018-03-14T21:44:52.068Z,101061.63
2018-03-14T21:47:21.132Z,101053.47
2018-03-14T21:49:49.922Z,101057.66
2018-03-14T21:52:18.744Z,101060.76
2018-03-14T21:54:48.008Z,101054.41
2018-03-14T21:57:19.392Z,101062.98
2018-03-14T21:59:47.976Z,101059.84
2018-03-14T22:02:16.554Z,101062.23
2018-03-14T22:04:45.116Z,101050.65
2018-03-14T22:07:13.790Z,101046.98
2018-03-14T22:09:43.516Z,101050.43
2018-03-14T22:12:12.218Z,101045.28
2018-03-14T22:14:40.871Z,101051.20
2018-03-14T22:17:09.802Z,101039.01
2018-03-14T22:19:38.254Z,101052.66
2018-03-14T22:22:06.782Z,101046.45
2018-03-14T22:24:35.858Z,101055.68
2018-03-14T22:27:04.412Z,101062.66
2018-03-14T22:29:32.882Z,101070.38
2018-03-14T22:32:01.490Z,101055.19
2018-03-14T22:34:29.979Z,101052.41
2018-03-14T22:36:59.350Z,101043.06
2018-03-14T22:39:28.357Z,101038.39
2018-03-14T22:41:56.832Z,101030.23
2018-03-14T22:44:25.414Z,101027.65
2018-03-14T22:46:55.375Z,101022.89
2018-03-14T22:49:23.913Z,101022.08
2018-03-14T22:51:52.422Z,101019.61
2018-03-14T22:54:21.518Z,101020.89
2018-03-14T22:56:50.168Z,101016.02
2018-03-14T22:59:18.681Z,101013.86
2018-03-14T23:01:47.489Z,101020.03
2018-03-14T23:04:16.896Z,101018.38
2018-03-14T23:06:45.674Z,101022.45
2018-03-14T23:09:14.532Z,101025.00
2018-03-14T23:11:43.102Z,101030.44
2018-03-14T23:14:11.563Z,101027.95
2018-03-14T23:16:40.066Z,101016.72
2018-03-14T23:19:08.522Z,101027.75
2018-03-14T23:21:37.751Z,101028.09
2018-03-14T23:24:06.847Z,101030.14
2018-03-14T23:26:35.319Z,101023.25
2018-03-14T23:29:03.793Z,101016.41
2018-03-14T23:31:32.488Z,101017.64
2018-03-14T23:34:01.039Z,101024.80
2018-03-14T23:36:29.552Z,101019.98
2018-03-14T23:39:00.620Z,101030.39
2018-03-14T23:41:29.995Z,101025.16
2018-03-14T23:43:58.505Z,101029.77
2018-03-14T23:46:27.880Z,101034.93
2018-03-14T23:48:56.359Z,101028.58
2018-03-14T23:51:24.875Z,101022.04
2018-03-14T23:53:53.837Z,101023.23
2018-03-14T23:56:22.318Z,101029.34
2018-03-14T23:58:50.797Z,101028.52
